Midas, Nevada
Current Conditions -  °F | °C
As of 10:56 AM on Monday 20 Oct 2014 (Local Time) from KWMC Reporting Station
Clear Clear  
Wind Chill: 64°   Ceiling: Unl
Heat Index: 64°   Visibility: 10mi
Dew Point: 30°   Wind: 0mph
Humidity: 28%   Direction: NA
Pressure: 29.95"   Gusts: NA
Location:  41.013°N, 117.293°W
Report Text: KWMC 201756Z AUTO 00000KT 10SM CLR 18/M01 A2995 RMK AO2 SLP114 T01781011 10183 21022 58002
Loading
Personal Weather Stations






























Interactive Weather Map
Tropical Storm Tracking
New forecast layout! Learn more

10-Day Weather Forecast

Advertisements
Track Severe Weather on mobile